AOJ12 LOWI-LICR
Flight info
| Callsign | AOJ12 |
|---|---|
| Flight time | 1h 34m |
| Altitude | 19000 |
| Route | BRENO M726 NAXAV/N0457F410 DCT GAVRA DCT GIKIN DCT DIRED DCT PIGER/N0391F180 L869 PEROS |
| Aircraft | CL60/M-SBDE1E2E3FGHIJ1J4J5J7M3RWXYZ/LB1V1D1 |
Departure
| Time | 2026-05-06 14:04 |
|---|---|
| Airport | Innsbruck Airport (LOWI) |
Arrival
| Time | 2026-05-06 15:38 |
|---|---|
| Airport | Reggio Calabria Airport (LICR) |
| Time | Latitude | Longitude | Altitude | Speed | Heading |
|---|---|---|---|---|---|
| 2026-05-06 13:34 | 47.25915 | 11.35387 | 1920 ft | 0 kts | 258° |
| 2026-05-06 13:59 | 47.25914 | 11.35386 | 1920 ft | 0 kts | 258° |
| 2026-05-06 13:59 | 47.25908 | 11.35333 | 1920 ft | 8 kts | 264° |
| 2026-05-06 13:59 | 47.25903 | 11.35232 | 1920 ft | 11 kts | 263° |
| 2026-05-06 13:59 | 47.25891 | 11.35122 | 1920 ft | 11 kts | 261° |
| 2026-05-06 14:00 | 47.25877 | 11.34990 | 1921 ft | 14 kts | 260° |
| 2026-05-06 14:00 | 47.25859 | 11.34835 | 1922 ft | 16 kts | 260° |
| 2026-05-06 14:00 | 47.25841 | 11.34665 | 1923 ft | 16 kts | 261° |
| 2026-05-06 14:00 | 47.25824 | 11.34505 | 1924 ft | 14 kts | 261° |
| 2026-05-06 14:01 | 47.25807 | 11.34344 | 1925 ft | 17 kts | 260° |
| 2026-05-06 14:01 | 47.25786 | 11.34158 | 1925 ft | 18 kts | 261° |
| 2026-05-06 14:01 | 47.25776 | 11.34041 | 1926 ft | 11 kts | 267° |
| 2026-05-06 14:01 | 47.25791 | 11.33928 | 1926 ft | 10 kts | 294° |
| 2026-05-06 14:02 | 47.25836 | 11.33828 | 1926 ft | 12 kts | 306° |
| 2026-05-06 14:02 | 47.25888 | 11.33724 | 1926 ft | 14 kts | 307° |
| 2026-05-06 14:02 | 47.25936 | 11.33656 | 1927 ft | 6 kts | 12° |
| 2026-05-06 14:02 | 47.25950 | 11.33695 | 1927 ft | 4 kts | 85° |
| 2026-05-06 14:03 | 47.25952 | 11.33709 | 1927 ft | 0 kts | 79° |
| 2026-05-06 14:03 | 47.25952 | 11.33710 | 1927 ft | 0 kts | 79° |
| 2026-05-06 14:03 | 47.25960 | 11.33781 | 1926 ft | 42 kts | 81° |
| 2026-05-06 14:04 | 47.26067 | 11.34773 | 1922 ft | 145 kts | 81° |
| 2026-05-06 14:04 | 47.26268 | 11.36399 | 2598 ft | 171 kts | 81° |
| 2026-05-06 14:04 | 47.26471 | 11.38084 | 3752 ft | 179 kts | 82° |
| 2026-05-06 14:04 | 47.26674 | 11.39868 | 4976 ft | 187 kts | 82° |
| 2026-05-06 14:05 | 47.26868 | 11.41700 | 6269 ft | 190 kts | 82° |
| 2026-05-06 14:05 | 47.27060 | 11.43556 | 7510 ft | 193 kts | 83° |
| 2026-05-06 14:05 | 47.27313 | 11.45461 | 8642 ft | 198 kts | 74° |
| 2026-05-06 14:05 | 47.27790 | 11.47365 | 9496 ft | 203 kts | 71° |
| 2026-05-06 14:06 | 47.28333 | 11.49301 | 10001 ft | 204 kts | 70° |
| 2026-05-06 14:06 | 47.28873 | 11.51190 | 10379 ft | 201 kts | 70° |
| 2026-05-06 14:06 | 47.29288 | 11.53214 | 10761 ft | 211 kts | 94° |
| 2026-05-06 14:06 | 47.28874 | 11.55156 | 11176 ft | 195 kts | 130° |
| 2026-05-06 14:07 | 47.27865 | 11.56372 | 11537 ft | 187 kts | 160° |
| 2026-05-06 14:07 | 47.26621 | 11.56689 | 11863 ft | 183 kts | 187° |
| 2026-05-06 14:07 | 47.25403 | 11.56155 | 12183 ft | 183 kts | 204° |
| 2026-05-06 14:07 | 47.24248 | 11.55361 | 12532 ft | 196 kts | 204° |
| 2026-05-06 14:08 | 47.22901 | 11.54445 | 13134 ft | 227 kts | 204° |
| 2026-05-06 14:08 | 47.21428 | 11.53445 | 13954 ft | 245 kts | 204° |
| 2026-05-06 14:08 | 47.19867 | 11.52387 | 14895 ft | 256 kts | 204° |
| 2026-05-06 14:08 | 47.18204 | 11.51261 | 15704 ft | 273 kts | 204° |
| 2026-05-06 14:09 | 47.16447 | 11.50073 | 16451 ft | 291 kts | 204° |
| 2026-05-06 14:09 | 47.14547 | 11.48789 | 17207 ft | 309 kts | 204° |
| 2026-05-06 14:09 | 47.12558 | 11.47446 | 17955 ft | 323 kts | 204° |
| 2026-05-06 14:09 | 47.10506 | 11.46062 | 18701 ft | 330 kts | 204° |
| 2026-05-06 14:10 | 47.08436 | 11.44667 | 19470 ft | 332 kts | 205° |
| 2026-05-06 14:10 | 47.06323 | 11.43244 | 20245 ft | 335 kts | 205° |
| 2026-05-06 14:10 | 47.04215 | 11.41826 | 21012 ft | 337 kts | 206° |
| 2026-05-06 14:10 | 47.02078 | 11.40389 | 21764 ft | 340 kts | 206° |
| 2026-05-06 14:11 | 46.99916 | 11.38938 | 22525 ft | 344 kts | 206° |
| 2026-05-06 14:11 | 46.97677 | 11.37714 | 23324 ft | 352 kts | 196° |
| 2026-05-06 14:11 | 46.95221 | 11.37311 | 24142 ft | 360 kts | 188° |
| 2026-05-06 14:11 | 46.92698 | 11.37046 | 24980 ft | 364 kts | 189° |
| 2026-05-06 14:12 | 46.90165 | 11.36770 | 25810 ft | 366 kts | 189° |
| 2026-05-06 14:12 | 46.87586 | 11.36489 | 26631 ft | 368 kts | 189° |
| 2026-05-06 14:12 | 46.84993 | 11.36208 | 27365 ft | 371 kts | 189° |
| 2026-05-06 14:12 | 46.82353 | 11.35920 | 28002 ft | 376 kts | 190° |
| 2026-05-06 14:13 | 46.79743 | 11.35636 | 28664 ft | 378 kts | 189° |
| 2026-05-06 14:13 | 46.77114 | 11.35356 | 29308 ft | 380 kts | 189° |
| 2026-05-06 14:13 | 46.74431 | 11.35078 | 29866 ft | 384 kts | 189° |
| 2026-05-06 14:13 | 46.71790 | 11.34806 | 30443 ft | 386 kts | 189° |
| 2026-05-06 14:14 | 46.69103 | 11.34529 | 30922 ft | 389 kts | 190° |
| 2026-05-06 14:14 | 46.66396 | 11.34250 | 31412 ft | 392 kts | 189° |
| 2026-05-06 14:14 | 46.63652 | 11.33967 | 31889 ft | 394 kts | 189° |
| 2026-05-06 14:14 | 46.60950 | 11.33690 | 32352 ft | 395 kts | 189° |
| 2026-05-06 14:15 | 46.58172 | 11.33405 | 32775 ft | 396 kts | 190° |
| 2026-05-06 14:15 | 46.55429 | 11.33124 | 33306 ft | 395 kts | 189° |
| 2026-05-06 14:15 | 46.52734 | 11.32850 | 33863 ft | 392 kts | 189° |
| 2026-05-06 14:15 | 46.49998 | 11.32572 | 34441 ft | 388 kts | 190° |
| 2026-05-06 14:16 | 46.47329 | 11.32327 | 34845 ft | 389 kts | 187° |
| 2026-05-06 14:16 | 46.44593 | 11.32536 | 35129 ft | 397 kts | 180° |
| 2026-05-06 14:16 | 46.41840 | 11.33076 | 35403 ft | 399 kts | 179° |
| 2026-05-06 14:16 | 46.39088 | 11.33618 | 35613 ft | 402 kts | 179° |
| 2026-05-06 14:17 | 46.36317 | 11.34161 | 35879 ft | 403 kts | 178° |
| 2026-05-06 14:17 | 46.33572 | 11.34700 | 36154 ft | 403 kts | 178° |
| 2026-05-06 14:17 | 46.30762 | 11.35250 | 36360 ft | 405 kts | 178° |
| 2026-05-06 14:17 | 46.27988 | 11.35792 | 36621 ft | 406 kts | 178° |
| 2026-05-06 14:18 | 46.25174 | 11.36341 | 36864 ft | 408 kts | 178° |
| 2026-05-06 14:18 | 46.22369 | 11.36887 | 37097 ft | 410 kts | 178° |
| 2026-05-06 14:18 | 46.19535 | 11.37439 | 37343 ft | 411 kts | 178° |
| 2026-05-06 14:18 | 46.16691 | 11.37992 | 37617 ft | 411 kts | 178° |
| 2026-05-06 14:19 | 46.13869 | 11.38540 | 37820 ft | 413 kts | 178° |
| 2026-05-06 14:19 | 46.11017 | 11.39093 | 38038 ft | 414 kts | 177° |
| 2026-05-06 14:19 | 46.08155 | 11.39648 | 38242 ft | 416 kts | 177° |
| 2026-05-06 14:19 | 46.05288 | 11.40202 | 38447 ft | 416 kts | 177° |
| 2026-05-06 14:20 | 46.02389 | 11.40763 | 38651 ft | 417 kts | 178° |
| 2026-05-06 14:20 | 45.99524 | 11.41317 | 38880 ft | 417 kts | 177° |
| 2026-05-06 14:20 | 45.96638 | 11.41874 | 39093 ft | 419 kts | 177° |
| 2026-05-06 14:20 | 45.93768 | 11.42426 | 39236 ft | 420 kts | 177° |
| 2026-05-06 14:21 | 45.90857 | 11.42987 | 39475 ft | 419 kts | 177° |
| 2026-05-06 14:21 | 45.87925 | 11.43551 | 39659 ft | 420 kts | 177° |
| 2026-05-06 14:21 | 45.85025 | 11.44108 | 39795 ft | 421 kts | 177° |
| 2026-05-06 14:21 | 45.82115 | 11.44666 | 39964 ft | 421 kts | 176° |
| 2026-05-06 14:22 | 45.79216 | 11.45222 | 40174 ft | 422 kts | 177° |
| 2026-05-06 14:22 | 45.76318 | 11.45927 | 40368 ft | 424 kts | 171° |
| 2026-05-06 14:22 | 45.73509 | 11.47180 | 40505 ft | 429 kts | 164° |
| 2026-05-06 14:22 | 45.70711 | 11.48718 | 40643 ft | 430 kts | 163° |
| 2026-05-06 14:23 | 45.67906 | 11.50260 | 40781 ft | 430 kts | 163° |
| 2026-05-06 14:23 | 45.65114 | 11.51792 | 40889 ft | 431 kts | 164° |
| 2026-05-06 14:23 | 45.59439 | 11.54896 | 40896 ft | 439 kts | 163° |
| 2026-05-06 14:24 | 45.53721 | 11.58019 | 40891 ft | 441 kts | 163° |
| 2026-05-06 14:24 | 45.47987 | 11.61144 | 40848 ft | 443 kts | 163° |
| 2026-05-06 14:25 | 45.42231 | 11.64276 | 40850 ft | 443 kts | 163° |
| 2026-05-06 14:25 | 45.36458 | 11.67409 | 40853 ft | 441 kts | 164° |
| 2026-05-06 14:26 | 45.30767 | 11.70492 | 40879 ft | 440 kts | 165° |
| 2026-05-06 14:26 | 45.25032 | 11.73590 | 40878 ft | 440 kts | 165° |
| 2026-05-06 14:27 | 45.19315 | 11.76672 | 40867 ft | 439 kts | 165° |
| 2026-05-06 14:27 | 45.13639 | 11.79725 | 40865 ft | 440 kts | 165° |
| 2026-05-06 14:28 | 45.07905 | 11.82802 | 40875 ft | 439 kts | 165° |
| 2026-05-06 14:28 | 45.03129 | 11.85360 | 40846 ft | 439 kts | 165° |
| 2026-05-06 14:29 | 44.96514 | 11.88897 | 40861 ft | 438 kts | 165° |
| 2026-05-06 14:29 | 44.90804 | 11.91942 | 40856 ft | 437 kts | 165° |
| 2026-05-06 14:30 | 44.86028 | 11.94484 | 40871 ft | 438 kts | 165° |
| 2026-05-06 14:30 | 44.80347 | 11.97501 | 40859 ft | 438 kts | 165° |
| 2026-05-06 14:31 | 44.74662 | 12.00515 | 40857 ft | 437 kts | 165° |
| 2026-05-06 14:31 | 44.68965 | 12.03528 | 40865 ft | 437 kts | 165° |
| 2026-05-06 14:32 | 44.62324 | 12.07033 | 40871 ft | 437 kts | 165° |
| 2026-05-06 14:32 | 44.57581 | 12.09531 | 40863 ft | 437 kts | 165° |
| 2026-05-06 14:33 | 44.51924 | 12.12504 | 40866 ft | 436 kts | 165° |
| 2026-05-06 14:33 | 44.45294 | 12.15981 | 40877 ft | 436 kts | 165° |
| 2026-05-06 14:34 | 44.39602 | 12.18960 | 40884 ft | 436 kts | 165° |
| 2026-05-06 14:34 | 44.34858 | 12.21437 | 40886 ft | 436 kts | 165° |
| 2026-05-06 14:35 | 44.29168 | 12.24403 | 40899 ft | 437 kts | 164° |
| 2026-05-06 14:35 | 44.22527 | 12.27858 | 40892 ft | 436 kts | 165° |
| 2026-05-06 14:36 | 44.17803 | 12.30310 | 40890 ft | 436 kts | 165° |
| 2026-05-06 14:36 | 44.12117 | 12.33256 | 40884 ft | 436 kts | 165° |
| 2026-05-06 14:37 | 44.06417 | 12.36203 | 40898 ft | 436 kts | 165° |
| 2026-05-06 14:37 | 43.99811 | 12.39611 | 40895 ft | 437 kts | 165° |
| 2026-05-06 14:38 | 43.95058 | 12.42058 | 40909 ft | 436 kts | 165° |
| 2026-05-06 14:38 | 43.89389 | 12.44971 | 40912 ft | 436 kts | 164° |
| 2026-05-06 14:39 | 43.83656 | 12.47911 | 40910 ft | 437 kts | 165° |
| 2026-05-06 14:39 | 43.77963 | 12.50824 | 40913 ft | 437 kts | 165° |
| 2026-05-06 14:40 | 43.72278 | 12.53727 | 40925 ft | 437 kts | 165° |
| 2026-05-06 14:40 | 43.66565 | 12.56639 | 40930 ft | 437 kts | 165° |
| 2026-05-06 14:41 | 43.60850 | 12.59546 | 40929 ft | 437 kts | 165° |
| 2026-05-06 14:41 | 43.55169 | 12.62430 | 40948 ft | 437 kts | 165° |
| 2026-05-06 14:42 | 43.49456 | 12.65324 | 40946 ft | 436 kts | 165° |
| 2026-05-06 14:42 | 43.43755 | 12.68207 | 40951 ft | 436 kts | 165° |
| 2026-05-06 14:43 | 43.38088 | 12.71066 | 40951 ft | 436 kts | 165° |
| 2026-05-06 14:43 | 43.32386 | 12.73938 | 40965 ft | 436 kts | 165° |
| 2026-05-06 14:44 | 43.26704 | 12.76793 | 40959 ft | 435 kts | 166° |
| 2026-05-06 14:45 | 43.18168 | 12.81072 | 40974 ft | 434 kts | 166° |
| 2026-05-06 14:45 | 43.12511 | 12.83901 | 40970 ft | 434 kts | 165° |
| 2026-05-06 14:46 | 43.06819 | 12.86741 | 40983 ft | 435 kts | 166° |
| 2026-05-06 14:46 | 43.01171 | 12.89555 | 40988 ft | 434 kts | 166° |
| 2026-05-06 14:47 | 42.95517 | 12.92366 | 40995 ft | 433 kts | 166° |
| 2026-05-06 14:47 | 42.89817 | 12.95194 | 41003 ft | 433 kts | 166° |
| 2026-05-06 14:48 | 42.84092 | 12.98029 | 40986 ft | 434 kts | 166° |
| 2026-05-06 14:48 | 42.78439 | 13.00823 | 41024 ft | 434 kts | 166° |
| 2026-05-06 14:49 | 42.72761 | 13.03624 | 40996 ft | 433 kts | 166° |
| 2026-05-06 14:49 | 42.67100 | 13.06411 | 41008 ft | 434 kts | 166° |
| 2026-05-06 14:50 | 42.61420 | 13.09201 | 41013 ft | 435 kts | 166° |
| 2026-05-06 14:50 | 42.55740 | 13.11986 | 41016 ft | 435 kts | 166° |
| 2026-05-06 14:51 | 42.50032 | 13.14780 | 41029 ft | 435 kts | 166° |
| 2026-05-06 14:51 | 42.44366 | 13.17547 | 41022 ft | 436 kts | 166° |
| 2026-05-06 14:52 | 42.38622 | 13.20347 | 41021 ft | 437 kts | 166° |
| 2026-05-06 14:52 | 42.32906 | 13.23128 | 41019 ft | 438 kts | 166° |
| 2026-05-06 14:53 | 42.27159 | 13.25920 | 41012 ft | 438 kts | 166° |
| 2026-05-06 14:53 | 42.21464 | 13.28680 | 41020 ft | 438 kts | 166° |
| 2026-05-06 14:54 | 42.15694 | 13.31472 | 41022 ft | 439 kts | 166° |
| 2026-05-06 14:54 | 42.09972 | 13.34234 | 41021 ft | 440 kts | 166° |
| 2026-05-06 14:55 | 42.04218 | 13.37008 | 41020 ft | 440 kts | 166° |
| 2026-05-06 14:55 | 41.97474 | 13.40251 | 41019 ft | 440 kts | 166° |
| 2026-05-06 14:56 | 41.92674 | 13.42556 | 41018 ft | 439 kts | 166° |
| 2026-05-06 14:56 | 41.86924 | 13.45311 | 41034 ft | 440 kts | 166° |
| 2026-05-06 14:57 | 41.81144 | 13.48074 | 41034 ft | 442 kts | 166° |
| 2026-05-06 14:57 | 41.75348 | 13.50841 | 41049 ft | 442 kts | 166° |
| 2026-05-06 14:58 | 41.69556 | 13.53600 | 41044 ft | 442 kts | 166° |
| 2026-05-06 14:58 | 41.63790 | 13.56342 | 41040 ft | 443 kts | 166° |
| 2026-05-06 14:59 | 41.57985 | 13.59097 | 41018 ft | 443 kts | 166° |
| 2026-05-06 14:59 | 41.52173 | 13.61851 | 41014 ft | 444 kts | 166° |
| 2026-05-06 15:00 | 41.46342 | 13.64607 | 40973 ft | 444 kts | 166° |
| 2026-05-06 15:00 | 41.40519 | 13.67356 | 40973 ft | 443 kts | 166° |
| 2026-05-06 15:01 | 41.34743 | 13.70076 | 40974 ft | 442 kts | 166° |
| 2026-05-06 15:01 | 41.28931 | 13.72808 | 40997 ft | 442 kts | 166° |
| 2026-05-06 15:02 | 41.23126 | 13.75530 | 40975 ft | 443 kts | 166° |
| 2026-05-06 15:02 | 41.17327 | 13.78247 | 40984 ft | 443 kts | 166° |
| 2026-05-06 15:03 | 41.11520 | 13.80960 | 40990 ft | 443 kts | 166° |
| 2026-05-06 15:03 | 41.05725 | 13.83664 | 40988 ft | 443 kts | 166° |
| 2026-05-06 15:04 | 40.99934 | 13.86360 | 40994 ft | 443 kts | 166° |
| 2026-05-06 15:04 | 40.94102 | 13.89070 | 40983 ft | 443 kts | 166° |
| 2026-05-06 15:05 | 40.88324 | 13.91750 | 41001 ft | 443 kts | 166° |
| 2026-05-06 15:05 | 40.82513 | 13.94440 | 40980 ft | 442 kts | 166° |
| 2026-05-06 15:06 | 40.76704 | 13.97124 | 41000 ft | 443 kts | 166° |
| 2026-05-06 15:06 | 40.70904 | 13.99799 | 41002 ft | 443 kts | 166° |
| 2026-05-06 15:07 | 40.65091 | 14.02475 | 40987 ft | 443 kts | 166° |
| 2026-05-06 15:07 | 40.59290 | 14.05140 | 40991 ft | 442 kts | 166° |
| 2026-05-06 15:08 | 40.53488 | 14.07801 | 40990 ft | 442 kts | 166° |
| 2026-05-06 15:08 | 40.47685 | 14.10457 | 40985 ft | 443 kts | 166° |
| 2026-05-06 15:09 | 40.41877 | 14.13111 | 40983 ft | 443 kts | 166° |
| 2026-05-06 15:09 | 40.36060 | 14.15763 | 40999 ft | 444 kts | 166° |
| 2026-05-06 15:10 | 40.30217 | 14.18422 | 40991 ft | 445 kts | 166° |
| 2026-05-06 15:10 | 40.24372 | 14.21078 | 40988 ft | 445 kts | 166° |
| 2026-05-06 15:11 | 40.18535 | 14.23725 | 40991 ft | 445 kts | 166° |
| 2026-05-06 15:11 | 40.12700 | 14.26367 | 40990 ft | 446 kts | 166° |
| 2026-05-06 15:12 | 40.06847 | 14.29011 | 40993 ft | 446 kts | 166° |
| 2026-05-06 15:12 | 40.00967 | 14.31663 | 40997 ft | 446 kts | 166° |
| 2026-05-06 15:13 | 39.95118 | 14.34296 | 40989 ft | 447 kts | 166° |
| 2026-05-06 15:13 | 39.89222 | 14.36944 | 40998 ft | 449 kts | 165° |
| 2026-05-06 15:14 | 39.83270 | 14.39611 | 40993 ft | 451 kts | 166° |
| 2026-05-06 15:14 | 39.77343 | 14.42265 | 40921 ft | 455 kts | 165° |
| 2026-05-06 15:14 | 39.74340 | 14.43605 | 40413 ft | 462 kts | 165° |
| 2026-05-06 15:15 | 39.71306 | 14.44961 | 39751 ft | 458 kts | 166° |
| 2026-05-06 15:15 | 39.68288 | 14.46309 | 39130 ft | 456 kts | 165° |
| 2026-05-06 15:15 | 39.65340 | 14.47625 | 38571 ft | 455 kts | 165° |
| 2026-05-06 15:15 | 39.62312 | 14.48999 | 38033 ft | 457 kts | 163° |
| 2026-05-06 15:16 | 39.59434 | 14.50651 | 37515 ft | 463 kts | 157° |
| 2026-05-06 15:16 | 39.56649 | 14.52778 | 37002 ft | 468 kts | 150° |
| 2026-05-06 15:16 | 39.54027 | 14.55378 | 36521 ft | 474 kts | 142° |
| 2026-05-06 15:16 | 39.51672 | 14.58378 | 35996 ft | 479 kts | 135° |
| 2026-05-06 15:17 | 39.49440 | 14.61577 | 35444 ft | 481 kts | 135° |
| 2026-05-06 15:17 | 39.47233 | 14.64739 | 34895 ft | 482 kts | 135° |
| 2026-05-06 15:17 | 39.44947 | 14.68008 | 34290 ft | 484 kts | 136° |
| 2026-05-06 15:17 | 39.42697 | 14.71224 | 33730 ft | 485 kts | 136° |
| 2026-05-06 15:18 | 39.40446 | 14.74437 | 33172 ft | 486 kts | 136° |
| 2026-05-06 15:18 | 39.38186 | 14.77660 | 32580 ft | 488 kts | 135° |
| 2026-05-06 15:18 | 39.35907 | 14.80907 | 32003 ft | 489 kts | 136° |
| 2026-05-06 15:18 | 39.33615 | 14.84166 | 31410 ft | 490 kts | 136° |
| 2026-05-06 15:19 | 39.31343 | 14.87396 | 30830 ft | 491 kts | 135° |
| 2026-05-06 15:19 | 39.29039 | 14.90668 | 30256 ft | 491 kts | 136° |
| 2026-05-06 15:19 | 39.26783 | 14.93869 | 29672 ft | 488 kts | 135° |
| 2026-05-06 15:19 | 39.24502 | 14.97104 | 29092 ft | 483 kts | 136° |
| 2026-05-06 15:20 | 39.22254 | 15.00288 | 28513 ft | 478 kts | 136° |
| 2026-05-06 15:20 | 39.20044 | 15.03414 | 27950 ft | 474 kts | 135° |
| 2026-05-06 15:20 | 39.17822 | 15.06555 | 27382 ft | 469 kts | 136° |
| 2026-05-06 15:20 | 39.15641 | 15.09633 | 26826 ft | 465 kts | 135° |
| 2026-05-06 15:21 | 39.13470 | 15.12694 | 26272 ft | 460 kts | 135° |
| 2026-05-06 15:21 | 39.11340 | 15.15695 | 25731 ft | 456 kts | 136° |
| 2026-05-06 15:21 | 39.09217 | 15.18681 | 25189 ft | 452 kts | 135° |
| 2026-05-06 15:21 | 39.07111 | 15.21643 | 24652 ft | 448 kts | 136° |
| 2026-05-06 15:22 | 39.05010 | 15.24594 | 24120 ft | 444 kts | 135° |
| 2026-05-06 15:22 | 39.02947 | 15.27489 | 23597 ft | 440 kts | 135° |
| 2026-05-06 15:22 | 39.00887 | 15.30376 | 23070 ft | 436 kts | 136° |
| 2026-05-06 15:22 | 38.98862 | 15.33212 | 22558 ft | 433 kts | 136° |
| 2026-05-06 15:23 | 38.96835 | 15.36049 | 22043 ft | 429 kts | 135° |
| 2026-05-06 15:23 | 38.94836 | 15.38843 | 21537 ft | 426 kts | 136° |
| 2026-05-06 15:23 | 38.92844 | 15.41627 | 21034 ft | 423 kts | 135° |
| 2026-05-06 15:23 | 38.90842 | 15.44419 | 20520 ft | 420 kts | 135° |
| 2026-05-06 15:24 | 38.88880 | 15.47155 | 20033 ft | 417 kts | 135° |
| 2026-05-06 15:24 | 38.86911 | 15.49897 | 19531 ft | 414 kts | 136° |
| 2026-05-06 15:24 | 38.84973 | 15.52595 | 19037 ft | 411 kts | 135° |
| 2026-05-06 15:24 | 38.83047 | 15.55272 | 18525 ft | 408 kts | 136° |
| 2026-05-06 15:25 | 38.81139 | 15.57924 | 18083 ft | 405 kts | 135° |
| 2026-05-06 15:25 | 38.79252 | 15.60542 | 17602 ft | 403 kts | 136° |
| 2026-05-06 15:25 | 38.77345 | 15.63187 | 17107 ft | 400 kts | 135° |
| 2026-05-06 15:25 | 38.75480 | 15.65771 | 16635 ft | 397 kts | 136° |
| 2026-05-06 15:26 | 38.73608 | 15.68363 | 16163 ft | 394 kts | 136° |
| 2026-05-06 15:26 | 38.71744 | 15.70942 | 15704 ft | 392 kts | 136° |
| 2026-05-06 15:26 | 38.69904 | 15.73486 | 15228 ft | 389 kts | 136° |
| 2026-05-06 15:26 | 38.68079 | 15.76007 | 14795 ft | 384 kts | 136° |
| 2026-05-06 15:27 | 38.66204 | 15.78365 | 14301 ft | 372 kts | 146° |
| 2026-05-06 15:27 | 38.64024 | 15.79967 | 13842 ft | 356 kts | 162° |
| 2026-05-06 15:27 | 38.61673 | 15.80689 | 13365 ft | 343 kts | 179° |
| 2026-05-06 15:27 | 38.59315 | 15.80587 | 12878 ft | 334 kts | 193° |
| 2026-05-06 15:28 | 38.57097 | 15.79939 | 12480 ft | 326 kts | 197° |
| 2026-05-06 15:28 | 38.54906 | 15.79246 | 12115 ft | 322 kts | 197° |
| 2026-05-06 15:28 | 38.52747 | 15.78569 | 11689 ft | 316 kts | 197° |
| 2026-05-06 15:28 | 38.50646 | 15.77911 | 11328 ft | 307 kts | 196° |
| 2026-05-06 15:29 | 38.48600 | 15.77270 | 10958 ft | 300 kts | 196° |
| 2026-05-06 15:29 | 38.46591 | 15.76641 | 10608 ft | 292 kts | 196° |
| 2026-05-06 15:29 | 38.44659 | 15.76036 | 10283 ft | 286 kts | 196° |
| 2026-05-06 15:29 | 38.42739 | 15.75435 | 9941 ft | 282 kts | 195° |
| 2026-05-06 15:30 | 38.40840 | 15.74840 | 9616 ft | 280 kts | 195° |
| 2026-05-06 15:30 | 38.38944 | 15.74247 | 9288 ft | 280 kts | 195° |
| 2026-05-06 15:30 | 38.37053 | 15.73653 | 8944 ft | 278 kts | 195° |
| 2026-05-06 15:30 | 38.35267 | 15.72769 | 8408 ft | 280 kts | 212° |
| 2026-05-06 15:31 | 38.33848 | 15.71095 | 7904 ft | 278 kts | 235° |
| 2026-05-06 15:31 | 38.33025 | 15.68926 | 7565 ft | 272 kts | 253° |
| 2026-05-06 15:31 | 38.32733 | 15.66608 | 7314 ft | 264 kts | 266° |
| 2026-05-06 15:32 | 38.32607 | 15.62038 | 6700 ft | 252 kts | 264° |
| 2026-05-06 15:32 | 38.32404 | 15.59871 | 6375 ft | 248 kts | 260° |
| 2026-05-06 15:32 | 38.32036 | 15.57770 | 6097 ft | 241 kts | 248° |
| 2026-05-06 15:32 | 38.31150 | 15.55964 | 5575 ft | 246 kts | 225° |
| 2026-05-06 15:33 | 38.29719 | 15.54754 | 4989 ft | 251 kts | 200° |
| 2026-05-06 15:33 | 38.28000 | 15.54437 | 4423 ft | 255 kts | 178° |
| 2026-05-06 15:33 | 38.26255 | 15.54604 | 4163 ft | 246 kts | 176° |
| 2026-05-06 15:33 | 38.24538 | 15.54790 | 3576 ft | 248 kts | 176° |
| 2026-05-06 15:34 | 38.22923 | 15.55012 | 3258 ft | 237 kts | 167° |
| 2026-05-06 15:34 | 38.21462 | 15.55774 | 3224 ft | 217 kts | 153° |
| 2026-05-06 15:34 | 38.20174 | 15.56639 | 2976 ft | 203 kts | 154° |
| 2026-05-06 15:34 | 38.19024 | 15.57394 | 2701 ft | 180 kts | 155° |
| 2026-05-06 15:35 | 38.17977 | 15.58077 | 2485 ft | 165 kts | 155° |
| 2026-05-06 15:35 | 38.16956 | 15.58739 | 2246 ft | 161 kts | 155° |
| 2026-05-06 15:35 | 38.15959 | 15.59386 | 2018 ft | 161 kts | 155° |
| 2026-05-06 15:35 | 38.14965 | 15.60031 | 1785 ft | 160 kts | 155° |
| 2026-05-06 15:36 | 38.13983 | 15.60670 | 1544 ft | 159 kts | 155° |
| 2026-05-06 15:36 | 38.12989 | 15.61316 | 1315 ft | 159 kts | 155° |
| 2026-05-06 15:36 | 38.12036 | 15.61936 | 1096 ft | 144 kts | 156° |
| 2026-05-06 15:36 | 38.11221 | 15.62476 | 934 ft | 127 kts | 156° |
| 2026-05-06 15:37 | 38.10444 | 15.62987 | 706 ft | 122 kts | 156° |
| 2026-05-06 15:37 | 38.09692 | 15.63486 | 537 ft | 122 kts | 157° |
| 2026-05-06 15:37 | 38.08931 | 15.63984 | 382 ft | 121 kts | 158° |
| 2026-05-06 15:37 | 38.08199 | 15.64461 | 219 ft | 118 kts | 158° |
| 2026-05-06 15:38 | 38.07484 | 15.64922 | 124 ft | 108 kts | 156° |
| 2026-05-06 15:38 | 38.06994 | 15.65238 | 123 ft | 46 kts | 153° |
| 2026-05-06 15:38 | 38.06742 | 15.65403 | 123 ft | 25 kts | 153° |
| 2026-05-06 15:38 | 38.06579 | 15.65509 | 123 ft | 27 kts | 153° |
| 2026-05-06 15:39 | 38.06501 | 15.65606 | 123 ft | 9 kts | 129° |
| 2026-05-06 15:39 | 38.06506 | 15.65556 | 123 ft | 17 kts | 326° |
| 2026-05-06 15:39 | 38.06652 | 15.65459 | 123 ft | 27 kts | 334° |
| 2026-05-06 15:39 | 38.06836 | 15.65342 | 123 ft | 31 kts | 333° |
| 2026-05-06 15:40 | 38.07040 | 15.65208 | 123 ft | 34 kts | 333° |
| 2026-05-06 15:40 | 38.07200 | 15.65106 | 123 ft | 15 kts | 334° |
| 2026-05-06 15:40 | 38.07287 | 15.65101 | 123 ft | 13 kts | 56° |
| 2026-05-06 15:40 | 38.07324 | 15.65187 | 123 ft | 11 kts | 63° |
| 2026-05-06 15:41 | 38.07324 | 15.65259 | 123 ft | 10 kts | 149° |
| 2026-05-06 15:41 | 38.07264 | 15.65298 | 123 ft | 6 kts | 152° |
| 2026-05-06 15:41 | 38.07253 | 15.65339 | 123 ft | 4 kts | 53° |
| 2026-05-06 15:41 | 38.07255 | 15.65373 | 123 ft | 1 kts | 113° |
| 2026-05-06 15:42 | 38.07253 | 15.65379 | 123 ft | 0 kts | 112° |